Archival Weather

Chicago O'Hare International

Chicago, Illinois (KORD)

Report from: Sunday, April 8, 2007 6:51 PM CDT
Current time: Monday, June 27, 2022 5:51 AM CDT

Current weather
Weather history
Weather forecast

Temperature1.7°C (35.1°F)
Wind chill-1.9°C (28.5°F)
Dew point-6.7°C (19.9°F)
Winds 7 kts (3.6 m/s, 8.1 mph) East (90°)
Visibility10 mi. (16.1 km)
Clouds Ceiling: Overcast 4,800 ft. (1,463 m)
Altimeter30.08 in.Hg (1019 mB)
Relative humidity54 %
Density altitude-1,741 ft. (-531 m)
Sea-level pressure101.9 kPa (1019 mB, 30.10 in.Hg)
Max temp last 6 hours4.4°C (39.9°F)
Min temp last 6 hours1.7°C (35.1°F)
Remarks Automated weather observing station with precipitation discriminator
Pressure rising more quickly
Flight conditions Visual Meteorological Conditions
Raw data2007-04-08 23:51 KORD 082351Z 09007KT 10SM OVC048 02/M07 A3008 RMK AO2 SLP192 T00171067 10044 20017 53009
An error has occurred. This application may no longer respond until reloaded. Reload 🗙